Time;durP1;ratioP1;P1;durP2;ratioP2;P2;SDS_P1;SDS_P2;PMS_P1;PMS_P2;Temp;Humidity;BMP_temperature;BMP_pressure;BME280_temperature;BME280_humidity;BME280_pressure;Samples;Min_cycle;Max_cycle;Signal;HPM_P1;HPM_P2
2023/02/16 00:00:42;;;;;;;10.45;2.20;;;;;;;2.49;53.59;101420.44;1681333;85;21035;-64
2023/02/16 00:03:15;;;;;;;4.40;1.40;;;;;;;2.43;53.57;101419.08;1681359;85;21027;-64
2023/02/16 00:05:44;;;;;;;4.87;1.50;;;;;;;2.42;53.66;101429.53;1681422;85;21475;-65
2023/02/16 00:08:14;;;;;;;2.83;1.20;;;;;;;2.38;53.84;101420.42;1681134;85;21070;-65
2023/02/16 00:13:43;;;;;;;2.33;1.30;;;;;;;2.35;53.96;101426.94;1681350;85;21065;-64
2023/02/16 00:16:21;;;;;;;4.12;1.50;;;;;;;2.37;54.06;101421.41;1681339;85;21037;-65
2023/02/16 00:18:51;;;;;;;3.00;1.37;;;;;;;2.37;54.21;101421.41;1682446;85;21150;-65
2023/02/16 00:21:19;;;;;;;2.87;1.15;;;;;;;2.36;54.30;101425.09;1680875;85;21507;-65
2023/02/16 00:23:49;;;;;;;4.08;1.20;;;;;;;2.33;54.51;101428.03;1681381;85;21054;-63
2023/02/16 00:26:24;;;;;;;5.55;1.27;;;;;;;2.29;54.64;101428.77;1681280;85;21038;-65
2023/02/16 00:28:58;;;;;;;2.65;1.02;;;;;;;2.27;55.00;101414.98;1681146;85;21070;-64
2023/02/16 00:31:32;;;;;;;4.60;1.32;;;;;;;2.28;55.02;101423.47;1681060;85;21051;-64
2023/02/16 00:34:25;;;;;;;5.47;1.20;;;;;;;2.27;55.00;101421.75;1681173;85;21070;-65
2023/02/16 00:36:55;;;;;;;2.05;1.02;;;;;;;2.28;55.02;101423.47;1681156;84;21618;-66
2023/02/16 00:39:24;;;;;;;5.15;1.70;;;;;;;2.25;55.06;101420.52;1681241;85;21006;-65
2023/02/16 00:41:56;;;;;;;5.22;1.37;;;;;;;2.20;55.13;101419.52;1681008;85;21051;-65
2023/02/16 00:44:42;;;;;;;2.90;1.40;;;;;;;2.25;55.16;101422.36;1681068;85;21066;-65
2023/02/16 00:47:34;;;;;;;2.95;1.47;;;;;;;2.25;55.18;101423.22;1681312;85;21082;-65
2023/02/16 00:50:17;;;;;;;5.62;1.20;;;;;;;2.25;55.19;101425.06;1681373;85;21023;-65
2023/02/16 00:52:47;;;;;;;5.53;1.50;;;;;;;2.25;55.24;101425.92;1680393;85;21063;-65
2023/02/16 00:55:21;;;;;;;2.12;1.12;;;;;;;2.25;55.27;101413.76;1680721;85;21067;-65
2023/02/16 00:58:26;;;;;;;3.85;1.20;;;;;;;2.22;55.37;101405.39;1681038;85;21085;-65
2023/02/16 01:00:59;;;;;;;2.50;1.17;;;;;;;2.19;55.55;101409.69;1681150;85;21011;-65
2023/02/16 01:03:28;;;;;;;2.98;1.22;;;;;;;2.12;55.87;101408.44;1681137;85;20999;-65
2023/02/16 01:11:37;;;;;;;5.83;1.30;;;;;;;2.22;55.75;101402.69;1680994;85;21482;-65
2023/02/16 01:14:10;;;;;;;2.15;1.00;;;;;;;2.18;55.64;101397.64;1680954;85;21035;-65
2023/02/16 01:16:41;;;;;;;2.65;1.17;;;;;;;2.16;55.82;101401.81;1681230;85;21514;-65
2023/02/16 01:19:11;;;;;;;2.50;1.25;;;;;;;2.16;55.92;101402.30;1681271;85;21082;-64
2023/02/16 01:21:40;;;;;;;5.75;1.40;;;;;;;2.17;56.08;101399.97;1681221;85;21186;-65
2023/02/16 01:24:09;;;;;;;4.40;1.50;;;;;;;2.13;56.08;101395.30;1681274;85;21023;-64
2023/02/16 01:26:41;;;;;;;4.60;1.30;;;;;;;2.15;56.02;101390.63;1681211;85;21078;-64
2023/02/16 01:29:16;;;;;;;2.65;1.20;;;;;;;2.15;55.99;101396.03;1681260;85;21070;-65
2023/02/16 01:31:45;;;;;;;6.87;2.12;;;;;;;2.15;56.06;101392.47;1681110;85;21031;-64
2023/02/16 01:34:14;;;;;;;3.75;1.50;;;;;;;2.14;56.04;101394.31;1681083;85;21170;-64
2023/02/16 01:36:47;;;;;;;3.33;1.30;;;;;;;2.13;56.11;101398.48;1688137;84;21493;-64
2023/02/16 01:39:18;;;;;;;3.60;1.40;;;;;;;2.10;56.01;101401.43;1698647;84;21049;-66
2023/02/16 01:42:14;;;;;;;4.47;1.50;;;;;;;2.06;56.10;101394.05;1698425;84;21536;-64
2023/02/16 01:44:50;;;;;;;2.70;1.30;;;;;;;2.05;56.25;101399.08;1698821;83;21085;-66
2023/02/16 01:47:42;;;;;;;4.58;1.85;;;;;;;2.06;56.32;101397.24;1698369;84;21268;-65
2023/02/16 01:50:18;;;;;;;4.58;1.60;;;;;;;2.09;56.35;101389.75;1698414;83;21030;-64
2023/02/16 01:53:03;;;;;;;5.60;1.70;;;;;;;2.10;56.29;101391.48;1698487;84;21117;-65
2023/02/16 01:55:37;;;;;;;5.78;1.65;;;;;;;2.08;56.42;101387.17;1698417;83;21539;-65
2023/02/16 01:58:33;;;;;;;2.72;1.30;;;;;;;2.07;56.49;101389.02;1698751;84;21042;-66
2023/02/16 02:01:20;;;;;;;6.20;1.40;;;;;;;2.07;56.50;101389.02;1698287;83;21442;-64
2023/02/16 02:06:37;;;;;;;6.83;1.55;;;;;;;2.03;56.61;101396.98;1698569;84;21048;-65
2023/02/16 02:09:21;;;;;;;4.62;1.60;;;;;;;2.06;56.75;101394.05;1668867;86;21426;-64
2023/02/16 02:12:25;;;;;;;3.95;1.50;;;;;;;2.07;56.65;101396.27;1698516;84;21500;-64
2023/02/16 02:14:55;;;;;;;4.00;1.70;;;;;;;2.09;56.64;101398.36;1698337;83;21006;-64
2023/02/16 02:17:25;;;;;;;3.72;1.55;;;;;;;2.09;56.66;101397.87;1698588;84;21216;-65
2023/02/16 02:23:29;;;;;;;4.03;1.52;;;;;;;2.09;56.59;101395.66;1698446;84;21065;-66
2023/02/16 02:23:32;;;;;;;4.72;1.57;;;;;;;2.08;56.83;101397.50;1711687;84;21046;-65
2023/02/16 02:26:53;;;;;;;5.20;1.70;;;;;;;2.07;56.95;101402.53;1713110;84;21019;-65
2023/02/16 02:30:10;;;;;;;5.42;1.62;;;;;;;2.03;56.90;101396.13;1712695;84;21026;-65
2023/02/16 02:33:09;;;;;;;5.25;1.50;;;;;;;1.98;57.03;101403.23;1713115;84;21974;-64
2023/02/16 02:36:07;;;;;;;3.50;1.42;;;;;;;1.96;57.22;101403.84;1713407;84;21050;-63
2023/02/16 02:39:17;;;;;;;8.95;2.00;;;;;;;2.00;57.33;101403.13;1713215;84;21047;-65
2023/02/16 02:42:21;;;;;;;6.40;1.90;;;;;;;1.99;57.36;101394.15;1713029;84;21533;-64
2023/02/16 02:45:05;;;;;;;5.70;1.87;;;;;;;2.00;57.53;101402.63;1713113;84;21035;-64
2023/02/16 02:47:39;;;;;;;3.30;1.62;;;;;;;2.00;57.65;101395.87;1713121;84;21022;-65
2023/02/16 02:51:27;;;;;;;5.37;1.87;;;;;;;2.03;57.71;101393.42;1713168;84;21051;-64
2023/02/16 02:53:16;;;;;;;3.75;1.75;;;;;;;2.02;57.80;101405.22;1713227;84;21470;-64
2023/02/16 03:01:22;;;;;;;4.45;1.47;;;;;;;1.98;58.32;101405.08;1698964;84;21497;-65
2023/02/16 03:03:53;;;;;;;5.12;1.70;;;;;;;1.94;58.46;101403.07;1712974;84;21571;-63
2023/02/16 03:06:32;;;;;;;4.22;1.50;;;;;;;1.94;58.54;101401.72;1713226;84;21118;-64
2023/02/16 03:09:07;;;;;;;4.45;1.67;;;;;;;1.96;58.67;101408.39;1712869;84;21458;-64
2023/02/16 03:14:35;;;;;;;5.70;2.45;;;;;;;1.89;59.32;101405.27;1683621;85;21047;-66
2023/02/16 03:31:17;;;;;;;4.37;1.77;;;;;;;1.80;61.64;101389.75;1683846;85;21046;-64
2023/02/16 03:33:49;;;;;;;5.65;2.05;;;;;;;1.79;61.97;101387.55;1688779;85;21361;-64
2023/02/16 03:36:17;;;;;;;5.47;1.80;;;;;;;1.76;62.07;101386.42;1689249;85;21034;-63
2023/02/16 03:38:46;;;;;;;3.87;2.00;;;;;;;1.73;62.36;101377.69;1689313;85;21046;-63
2023/02/16 03:41:15;;;;;;;4.22;2.05;;;;;;;1.71;62.59;101381.00;1689218;85;21451;-64
2023/02/16 03:43:44;;;;;;;4.53;2.25;;;;;;;1.70;62.81;101380.62;1689339;85;21006;-65
2023/02/16 03:46:12;;;;;;;5.12;2.10;;;;;;;1.70;63.17;101374.73;1689299;85;21070;-64
2023/02/16 03:48:43;;;;;;;5.12;2.35;;;;;;;1.69;63.38;101370.80;1689359;84;21458;-63
2023/02/16 03:51:13;;;;;;;7.60;2.25;;;;;;;1.67;63.41;101372.75;1688931;85;21473;-64
2023/02/16 03:53:42;;;;;;;6.17;2.50;;;;;;;1.64;63.39;101377.04;1689263;84;21051;-63
2023/02/16 03:56:11;;;;;;;5.53;2.33;;;;;;;1.63;63.55;101373.48;1689573;84;21110;-64
2023/02/16 03:58:39;;;;;;;6.67;2.42;;;;;;;1.63;63.73;101371.27;1689618;85;21532;-63
2023/02/16 04:01:10;;;;;;;7.08;2.50;;;;;;;1.62;63.96;101365.00;1689579;85;21086;-62
2023/02/16 04:03:40;;;;;;;5.70;2.80;;;;;;;1.63;64.15;101364.52;1689819;85;21484;-64
2023/02/16 04:06:09;;;;;;;6.25;2.67;;;;;;;1.64;64.34;101364.89;1689405;84;21678;-64
2023/02/16 04:08:39;;;;;;;8.30;3.10;;;;;;;1.63;64.40;101363.16;1689457;85;21439;-64
2023/02/16 04:13:57;;;;;;;12.30;4.60;;;;;;;1.60;64.62;101356.16;1689814;85;21034;-64
2023/02/16 04:16:27;;;;;;;10.23;4.37;;;;;;;1.59;64.95;101372.85;1689495;85;21058;-64
2023/02/16 04:18:56;;;;;;;10.98;4.80;;;;;;;1.55;65.27;101363.26;1689554;85;21473;-65
2023/02/16 04:21:25;;;;;;;10.25;4.58;;;;;;;1.53;65.59;101363.86;1689698;85;21647;-65
2023/02/16 04:23:54;;;;;;;12.75;4.72;;;;;;;1.52;65.80;101358.58;1689768;85;21642;-63
2023/02/16 04:26:24;;;;;;;11.05;4.83;;;;;;;1.52;66.09;101349.98;1689501;85;21503;-63
2023/02/16 04:28:53;;;;;;;12.60;5.40;;;;;;;1.53;66.36;101347.66;1689671;85;21510;-64
2023/02/16 04:31:22;;;;;;;14.05;6.20;;;;;;;1.54;66.45;101357.48;1689623;85;21529;-63
2023/02/16 04:33:51;;;;;;;11.85;5.22;;;;;;;1.52;66.71;101347.28;1689513;85;21078;-63
2023/02/16 04:36:20;;;;;;;15.48;5.58;;;;;;;1.50;66.87;101345.19;1689779;85;21038;-64
2023/02/16 04:38:49;;;;;;;12.50;5.83;;;;;;;1.48;67.11;101338.18;1689261;83;21462;-64
2023/02/16 04:41:18;;;;;;;12.90;6.10;;;;;;;1.46;67.51;101346.40;1689214;85;21030;-64
2023/02/16 04:43:49;;;;;;;10.35;5.15;;;;;;;1.45;67.78;101338.41;1689184;84;21484;-64
2023/02/16 04:46:19;;;;;;;12.78;5.60;;;;;;;1.40;67.94;101329.31;1689212;85;21474;-64
2023/02/16 04:48:49;;;;;;;12.65;5.15;;;;;;;1.40;68.23;101333.36;1634118;88;21330;-64
2023/02/16 04:51:18;;;;;;;13.13;5.42;;;;;;;1.41;68.52;101333.73;1634070;88;21541;-64
2023/02/16 04:53:47;;;;;;;13.15;5.75;;;;;;;1.39;68.71;101330.78;1634247;88;21054;-64
2023/02/16 04:56:16;;;;;;;13.88;5.72;;;;;;;1.36;68.97;101325.13;1633963;87;21540;-65
2023/02/16 04:58:47;;;;;;;10.35;4.72;;;;;;;1.34;69.18;101323.03;1634120;88;21057;-64
2023/02/16 05:01:21;;;;;;;10.45;5.08;;;;;;;1.32;69.38;101324.98;1633999;88;21224;-64
2023/02/16 05:03:51;;;;;;;13.22;5.15;;;;;;;1.32;69.59;101324.13;1634057;87;21473;-65
2023/02/16 05:06:20;;;;;;;12.03;4.62;;;;;;;1.32;69.78;101322.28;1646547;85;21478;-62
2023/02/16 05:08:48;;;;;;;13.58;5.30;;;;;;;1.31;69.86;101317.86;1689326;84;21018;-64
2023/02/16 05:16:57;;;;;;;10.00;5.00;;;;;;;1.26;70.51;101314.61;1689197;85;21018;-63
2023/02/16 05:19:27;;;;;;;9.60;4.37;;;;;;;1.23;70.80;101313.49;1689191;85;21081;-63
2023/02/16 05:21:55;;;;;;;13.53;4.62;;;;;;;1.24;70.97;101321.97;1689175;85;21509;-65
2023/02/16 05:24:24;;;;;;;10.13;5.00;;;;;;;1.22;71.00;101318.03;1689460;84;21054;-63
2023/02/16 05:26:55;;;;;;;12.43;5.08;;;;;;;1.21;71.12;101327.59;1689220;85;21473;-63
2023/02/16 05:29:24;;;;;;;13.20;5.30;;;;;;;1.22;71.30;101323.92;1689167;85;21475;-65
2023/02/16 05:31:53;;;;;;;11.80;4.70;;;;;;;1.24;71.39;101319.27;1689311;84;21022;-64
2023/02/16 05:34:22;;;;;;;11.22;5.12;;;;;;;1.27;71.61;101317.69;1689473;85;21062;-64
2023/02/16 05:36:52;;;;;;;11.45;5.00;;;;;;;1.26;71.59;101318.66;1689413;84;21506;-64
2023/02/16 05:39:21;;;;;;;23.00;5.87;;;;;;;1.25;71.69;101325.03;1689425;85;21069;-64
2023/02/16 05:41:49;;;;;;;17.02;5.83;;;;;;;1.24;71.84;101324.17;1689423;85;21066;-65
2023/02/16 05:44:18;;;;;;;12.18;5.08;;;;;;;1.26;71.92;101322.22;1689436;84;21070;-64
2023/02/16 05:46:48;;;;;;;12.05;5.40;;;;;;;1.27;71.91;101325.78;1689784;85;21082;-67
2023/02/16 05:49:17;;;;;;;11.10;5.30;;;;;;;1.26;71.95;101323.57;1689428;85;21058;-64
2023/02/16 05:51:47;;;;;;;24.23;6.05;;;;;;;1.26;71.99;101322.22;1689540;84;21038;-66
2023/02/16 05:54:16;;;;;;;20.77;6.92;;;;;;;1.27;72.03;101323.08;1689387;85;21074;-64
2023/02/16 05:56:49;;;;;;;13.55;5.78;;;;;;;1.28;72.16;101312.17;1689396;84;21015;-64
2023/02/16 05:59:17;;;;;;;16.30;6.97;;;;;;;1.31;72.26;101314.30;1689560;85;21065;-65
2023/02/16 06:01:47;;;;;;;15.72;6.47;;;;;;;1.32;72.28;101325.47;1689705;84;21006;-65
2023/02/16 06:04:21;;;;;;;20.68;8.60;;;;;;;1.30;72.35;101322.89;1689211;84;21490;-64
2023/02/16 06:06:49;;;;;;;23.30;8.53;;;;;;;1.30;72.39;101328.73;1689680;85;21022;-64
2023/02/16 06:09:19;;;;;;;19.15;6.85;;;;;;;1.35;72.56;101333.34;1689427;85;21568;-64
2023/02/16 06:11:48;;;;;;;18.67;6.67;;;;;;;1.36;72.59;101335.06;1689946;84;21430;-63
2023/02/16 06:14:19;;;;;;;16.57;6.33;;;;;;;1.38;72.71;101329.92;1689540;85;21504;-64
2023/02/16 06:16:50;;;;;;;14.55;6.80;;;;;;;1.41;72.77;101336.44;1689628;84;21480;-65
2023/02/16 06:19:22;;;;;;;15.70;7.90;;;;;;;1.43;72.70;101324.17;1689291;85;21338;-63
2023/02/16 06:21:51;;;;;;;39.92;15.35;;;;;;;1.41;72.70;101326.13;1689374;85;21434;-64
2023/02/16 06:24:20;;;;;;;24.18;10.38;;;;;;;1.42;72.75;101318.39;1689597;84;21034;-64
2023/02/16 06:26:49;;;;;;;18.48;7.65;;;;;;;1.41;72.77;101322.07;1689367;84;21520;-64
2023/02/16 06:29:17;;;;;;;21.97;7.83;;;;;;;1.41;72.88;101320.72;1689388;84;21564;-65
2023/02/16 06:31:46;;;;;;;19.27;6.75;;;;;;;1.40;72.97;101325.27;1689486;85;21493;-62
2023/02/16 06:34:14;;;;;;;16.85;6.30;;;;;;;1.41;73.01;101336.44;1689400;84;21058;-64
2023/02/16 06:36:45;;;;;;;17.37;7.35;;;;;;;1.41;73.07;101330.17;1634256;88;21057;-65
2023/02/16 06:39:13;;;;;;;20.05;7.33;;;;;;;1.42;73.17;101321.09;1633678;88;21546;-64
2023/02/16 06:41:42;;;;;;;21.62;8.15;;;;;;;1.43;73.23;101320.12;1634204;88;21153;-65
2023/02/16 06:44:14;;;;;;;23.90;8.15;;;;;;;1.45;73.25;101319.52;1634124;88;21070;-64
2023/02/16 06:46:45;;;;;;;19.12;6.72;;;;;;;1.45;73.36;101313.62;1633806;87;21069;-66
2023/02/16 06:49:17;;;;;;;27.80;7.55;;;;;;;1.47;73.41;101319.77;1633865;87;21553;-66
2023/02/16 06:51:47;;;;;;;18.12;7.37;;;;;;;1.48;73.43;101317.92;1634047;88;21061;-64
2023/02/16 06:54:15;;;;;;;20.37;6.55;;;;;;;1.49;73.51;101317.81;1646852;85;21102;-65
2023/02/16 06:56:44;;;;;;;36.23;7.65;;;;;;;1.52;73.53;101321.63;1689056;85;21474;-65
2023/02/16 06:59:13;;;;;;;18.52;7.40;;;;;;;1.50;73.61;101324.07;1689142;84;21014;-65
2023/02/16 07:01:41;;;;;;;18.85;7.17;;;;;;;1.51;73.73;101316.34;1689140;85;21504;-65
2023/02/16 07:04:12;;;;;;;23.25;8.58;;;;;;;1.52;73.85;101318.06;1689432;85;21080;-64
2023/02/16 07:06:42;;;;;;;30.90;8.00;;;;;;;1.51;73.89;101306.89;1689431;85;21731;-65
2023/02/16 07:09:13;;;;;;;17.95;7.87;;;;;;;1.52;74.00;101306.77;1689024;85;21055;-65
2023/02/16 07:11:41;;;;;;;22.40;8.68;;;;;;;1.54;73.99;101306.17;1689398;84;21102;-66
2023/02/16 07:14:11;;;;;;;19.65;8.48;;;;;;;1.56;73.97;101299.30;1689207;84;21077;-65
2023/02/16 07:16:40;;;;;;;27.48;9.35;;;;;;;1.58;74.00;101302.74;1689355;84;21062;-65
2023/02/16 07:19:09;;;;;;;36.40;10.80;;;;;;;1.61;73.99;101297.59;1689386;85;21485;-63
2023/02/16 07:21:38;;;;;;;36.95;16.80;;;;;;;1.59;73.93;101290.47;1689324;85;21455;-64
2023/02/16 07:24:09;;;;;;;49.77;26.70;;;;;;;1.62;73.97;101291.21;1665687;85;21102;-66
2023/02/16 07:26:39;;;;;;;65.70;24.43;;;;;;;1.63;73.95;101296.49;1689333;85;21002;-65
2023/02/16 07:29:08;;;;;;;52.80;15.48;;;;;;;1.66;74.08;101289.99;1689061;85;21478;-65
2023/02/16 07:31:38;;;;;;;22.10;10.13;;;;;;;1.69;74.09;101290.62;1689436;85;21474;-64
2023/02/16 07:34:07;;;;;;;38.63;10.55;;;;;;;1.73;74.07;101289.40;1689317;85;21430;-65
2023/02/16 07:36:37;;;;;;;26.37;10.82;;;;;;;1.76;73.96;101279.70;1689284;84;21422;-64
2023/02/16 07:39:05;;;;;;;26.93;13.08;;;;;;;1.77;73.78;101280.56;1689428;84;21097;-65
2023/02/16 07:41:34;;;;;;;43.85;13.62;;;;;;;1.80;73.79;101273.08;1689469;85;21045;-66
2023/02/16 07:44:05;;;;;;;45.52;12.98;;;;;;;1.85;73.64;101277.63;1689546;85;21042;-65
2023/02/16 07:46:34;;;;;;;30.52;9.00;;;;;;;1.90;73.57;101271.37;1689493;85;21050;-65
2023/02/16 07:49:05;;;;;;;21.35;8.23;;;;;;;1.93;73.46;101268.06;1689407;84;21059;-63
2023/02/16 07:51:34;;;;;;;77.90;12.68;;;;;;;1.94;73.13;101269.78;1689434;84;21556;-65
2023/02/16 07:54:05;;;;;;;34.80;8.50;;;;;;;1.97;73.20;101258.77;1632888;87;21070;-65
2023/02/16 07:56:35;;;;;;;14.53;6.15;;;;;;;2.04;73.13;101269.45;1632937;88;21524;-65
2023/02/16 07:59:03;;;;;;;39.30;10.72;;;;;;;2.09;72.80;101264.05;1644028;87;21489;-62
2023/02/16 08:01:34;;;;;;;43.75;9.05;;;;;;;2.10;72.64;101265.78;1643899;86;21131;-65
2023/02/16 08:04:06;;;;;;;33.08;7.17;;;;;;;2.12;72.57;101262.46;1644000;87;21555;-65
2023/02/16 08:06:35;;;;;;;20.08;5.70;;;;;;;2.18;72.49;101265.16;1644013;86;21030;-64
2023/02/16 08:09:03;;;;;;;28.98;6.12;;;;;;;2.22;72.27;101265.28;1643810;86;21034;-66
2023/02/16 08:11:34;;;;;;;20.40;6.67;;;;;;;2.29;71.90;101265.16;1656266;84;21041;-64
2023/02/16 08:14:02;;;;;;;22.35;6.12;;;;;;;2.35;71.34;101267.37;1701324;84;21472;-65
2023/02/16 08:16:32;;;;;;;28.32;6.20;;;;;;;2.36;70.79;101251.52;1701281;84;21073;-65
2023/02/16 08:19:08;;;;;;;27.62;6.55;;;;;;;2.40;70.46;101254.83;1701326;84;21524;-60
2023/02/16 08:21:33;;;;;;;28.87;7.37;;;;;;;2.46;70.20;101247.57;1715731;83;21090;-65
2023/02/16 08:24:05;;;;;;;66.20;11.60;;;;;;;2.50;69.75;101246.34;1698948;83;21038;-64
2023/02/16 08:26:38;;;;;;;19.82;8.20;;;;;;;2.52;69.67;101248.42;1716035;83;21054;-65
2023/02/16 08:29:15;;;;;;;30.55;8.38;;;;;;;2.53;69.54;101244.24;1715896;83;21078;-64
2023/02/16 08:31:45;;;;;;;30.32;12.30;;;;;;;2.56;69.53;101244.48;1716141;83;20995;-66
2023/02/16 08:34:17;;;;;;;31.07;9.55;;;;;;;2.63;69.46;101248.93;1716045;83;21077;-65
2023/02/16 08:36:47;;;;;;;20.23;7.60;;;;;;;2.69;69.12;101242.52;1715894;83;21137;-64
2023/02/16 08:39:18;;;;;;;24.90;6.72;;;;;;;2.74;68.48;101247.06;1714180;83;21058;-64
2023/02/16 08:41:48;;;;;;;27.82;5.97;;;;;;;2.79;67.85;101246.68;1713087;84;21462;-65
2023/02/16 08:44:18;;;;;;;19.60;5.67;;;;;;;2.82;67.36;101241.88;1713116;84;21433;-65
2023/02/16 08:46:48;;;;;;;30.72;7.17;;;;;;;2.87;67.06;101238.78;1713207;84;20982;-65
2023/02/16 08:49:18;;;;;;;24.18;6.80;;;;;;;2.91;66.64;101242.09;1713230;84;21034;-63
2023/02/16 08:51:56;;;;;;;44.67;7.30;;;;;;;2.93;66.37;101236.92;1713046;84;20995;-65
2023/02/16 08:54:29;;;;;;;41.42;7.70;;;;;;;2.94;65.84;101234.58;1713255;84;21035;-65
2023/02/16 08:56:58;;;;;;;18.98;5.62;;;;;;;2.93;65.62;101239.63;1713337;84;21022;-66
2023/02/16 08:59:27;;;;;;;16.55;5.25;;;;;;;2.94;65.43;101236.42;1709019;84;21038;-66
2023/02/16 09:01:57;;;;;;;37.93;6.55;;;;;;;2.96;65.44;101229.03;1692933;85;21463;-62
2023/02/16 09:04:28;;;;;;;14.07;6.00;;;;;;;3.03;65.21;101222.98;1693034;84;21946;-64
2023/02/16 09:06:57;;;;;;;21.42;5.37;;;;;;;3.08;64.71;101221.23;1693134;85;21086;-64
2023/02/16 09:09:26;;;;;;;28.25;6.50;;;;;;;3.07;64.58;101223.08;1693316;84;21525;-68
2023/02/16 09:11:56;;;;;;;36.73;7.53;;;;;;;3.11;64.67;101223.68;1693130;83;21034;-65
2023/02/16 09:14:26;;;;;;;18.65;5.60;;;;;;;3.14;64.42;101221.58;1693198;84;21447;-64
2023/02/16 09:16:56;;;;;;;14.60;5.30;;;;;;;3.18;64.26;101223.03;1695914;83;21127;-65
2023/02/16 09:19:27;;;;;;;17.77;4.97;;;;;;;3.25;64.15;101211.22;1698651;84;21081;-67
2023/02/16 09:21:56;;;;;;;23.65;4.95;;;;;;;3.29;63.48;101214.03;1681113;85;21494;-66
2023/02/16 09:24:27;;;;;;;27.27;5.53;;;;;;;3.33;63.34;101214.62;1670395;86;21522;-66
2023/02/16 09:26:55;;;;;;;26.62;6.55;;;;;;;3.36;63.04;101212.52;1698790;84;21500;-65
2023/02/16 09:29:25;;;;;;;20.40;5.35;;;;;;;3.45;63.45;101218.49;1681297;85;21079;-65
2023/02/16 09:31:54;;;;;;;16.27;5.00;;;;;;;3.52;62.73;101212.55;1670549;86;21593;-68
2023/02/16 09:34:26;;;;;;;16.27;4.37;;;;;;;3.55;62.39;101216.34;1698475;84;21043;-65
2023/02/16 09:36:57;;;;;;;13.90;5.17;;;;;;;3.55;62.17;101204.16;1681067;85;21059;-64
2023/02/16 09:39:25;;;;;;;17.35;5.30;;;;;;;3.57;62.42;101198.97;1657279;86;21081;-66
2023/02/16 09:42:21;;;;;;;14.18;5.15;;;;;;;3.63;62.24;101192.16;1664675;86;22218;-65
2023/02/16 09:45:15;;;;;;;20.15;5.67;;;;;;;3.66;61.94;101198.16;1661845;86;21512;-67
2023/02/16 09:47:46;;;;;;;11.80;4.85;;;;;;;3.74;62.47;101198.84;1661982;86;21051;-62
2023/02/16 09:50:24;;;;;;;10.85;4.50;;;;;;;3.82;61.93;101191.77;1661816;86;21465;-60
2023/02/16 09:52:59;;;;;;;13.22;4.55;;;;;;;4.15;67.73;101188.44;1670855;86;21077;-59
2023/02/16 09:55:36;;;;;;;14.20;4.53;;;;;;;4.77;67.32;101192.27;1664816;86;21109;-60
2023/02/16 09:58:20;;;;;;;9.23;4.60;;;;;;;5.15;64.61;101189.71;1665198;86;21067;-62
2023/02/16 10:00:53;;;;;;;11.65;4.55;;;;;;;5.44;63.24;101184.28;1650579;86;21106;-62
2023/02/16 10:04:05;;;;;;;16.32;5.28;;;;;;;5.69;62.03;101187.23;1661741;86;21789;-63
2023/02/16 10:06:46;;;;;;;11.68;4.08;;;;;;;5.99;60.07;101179.40;1661885;85;21482;-61
2023/02/16 10:09:17;;;;;;;17.27;5.10;;;;;;;6.32;58.29;101175.74;1656417;86;21059;-61
2023/02/16 10:11:55;;;;;;;35.88;6.97;;;;;;;6.59;57.51;101171.67;1583853;90;21056;-64
2023/02/16 10:14:42;;;;;;;23.00;6.40;;;;;;;6.77;56.48;101159.95;1590842;90;21110;-65
2023/02/16 10:17:37;;;;;;;19.30;6.87;;;;;;;6.72;54.10;101165.00;1603065;89;21307;-66
2023/02/16 10:20:22;;;;;;;12.55;5.62;;;;;;;6.30;53.70;101158.70;1591919;90;21071;-67
2023/02/16 10:23:17;;;;;;;23.10;5.37;;;;;;;5.89;54.29;101158.19;1603639;89;21066;-65
2023/02/16 10:26:03;;;;;;;14.33;5.42;;;;;;;5.58;54.71;101153.92;1591443;90;21605;-66
2023/02/16 10:28:46;;;;;;;23.52;6.97;;;;;;;5.27;54.09;101143.77;1603671;89;21448;-67
2023/02/16 10:31:42;;;;;;;9.90;5.15;;;;;;;5.04;55.16;101150.83;1670926;85;21596;-68
2023/02/16 10:34:41;;;;;;;21.80;5.25;;;;;;;4.93;55.50;101139.26;1670777;85;21136;-68
2023/02/16 10:37:30;;;;;;;28.42;5.70;;;;;;;4.86;55.64;101139.47;1670617;86;21009;-66
2023/02/16 10:40:22;;;;;;;13.20;4.95;;;;;;;4.75;56.04;101132.33;1686600;84;21163;-64
2023/02/16 10:43:13;;;;;;;17.42;5.40;;;;;;;4.73;56.37;101127.04;1698597;84;21058;-67
2023/02/16 10:45:52;;;;;;;11.75;5.50;;;;;;;4.73;56.37;101131.11;1680798;85;21461;-65
2023/02/16 10:48:23;;;;;;;15.70;5.37;;;;;;;4.71;56.27;101119.54;1670277;86;21083;-67
2023/02/16 10:51:11;;;;;;;17.25;5.78;;;;;;;4.75;56.58;101123.69;1698477;84;21022;-64
2023/02/16 10:53:46;;;;;;;26.05;6.17;;;;;;;4.77;56.45;101121.69;1681180;85;21051;-65
2023/02/16 10:56:42;;;;;;;14.15;5.58;;;;;;;4.78;56.38;101117.97;1674584;84;21036;-67
2023/02/16 10:59:20;;;;;;;16.27;6.05;;;;;;;4.81;56.47;101114.61;1698535;84;21532;-66
2023/02/16 11:01:57;;;;;;;16.35;6.42;;;;;;;4.81;56.35;101110.03;1680984;85;21094;-67
2023/02/16 11:04:39;;;;;;;16.27;5.83;;;;;;;4.79;56.32;101107.97;1698812;84;21091;-66
2023/02/16 11:07:17;;;;;;;25.40;6.20;;;;;;;4.77;56.46;101099.11;1698390;84;21054;-69
2023/02/16 11:09:54;;;;;;;10.88;5.17;;;;;;;4.77;56.50;101101.82;1681192;85;21082;-68
2023/02/16 11:12:33;;;;;;;12.90;5.10;;;;;;;4.76;56.23;101094.67;1699071;84;21071;-67
2023/02/16 11:15:17;;;;;;;19.15;6.30;;;;;;;4.71;56.10;101095.11;1698570;84;21536;-69
2023/02/16 11:17:53;;;;;;;20.65;6.87;;;;;;;4.68;56.46;101096.75;1681021;85;21055;-66
2023/02/16 11:20:45;;;;;;;13.93;5.45;;;;;;;4.71;56.58;101092.39;1698862;84;21032;-68
2023/02/16 11:23:40;;;;;;;16.67;6.80;;;;;;;4.78;56.49;101089.96;1698596;83;21403;-69
2023/02/16 11:26:22;;;;;;;14.65;5.53;;;;;;;4.80;56.44;101081.67;1698051;84;21083;-68
2023/02/16 11:28:51;;;;;;;13.13;5.58;;;;;;;4.84;56.12;101076.31;1698663;84;21077;-66
2023/02/16 11:31:38;;;;;;;12.93;6.22;;;;;;;4.83;56.09;101068.66;1681064;85;21443;-67
2023/02/16 11:34:41;;;;;;;16.73;5.80;;;;;;;4.83;55.52;101070.52;1670638;86;21039;-65
2023/02/16 11:37:31;;;;;;;25.12;12.58;;;;;;;4.82;55.30;101062.02;1698363;84;21532;-66
2023/02/16 11:40:08;;;;;;;17.00;6.87;;;;;;;4.78;55.35;101058.24;1674970;84;21072;-68
2023/02/16 11:42:46;;;;;;;15.15;5.58;;;;;;;4.76;55.53;101054.81;1695471;84;21064;-71
2023/02/16 11:45:35;;;;;;;13.72;5.55;;;;;;;4.75;55.79;101044.95;1676235;85;21077;-69
2023/02/16 11:48:12;;;;;;;19.20;6.20;;;;;;;4.80;55.77;101043.66;1676079;85;21108;-70
2023/02/16 11:51:01;;;;;;;21.02;5.72;;;;;;;4.82;55.48;101039.80;1711138;84;21040;-71
2023/02/16 11:53:35;;;;;;;14.78;5.40;;;;;;;4.81;55.24;101036.73;1711163;84;21099;-70
2023/02/16 11:56:26;;;;;;;15.25;6.25;;;;;;;4.78;55.24;101037.02;1711207;83;21072;-70
2023/02/16 11:59:17;;;;;;;14.63;5.62;;;;;;;4.78;55.34;101026.16;1711189;83;21028;-70
2023/02/16 12:02:14;;;;;;;15.78;5.35;;;;;;;4.75;55.58;101024.59;1711195;83;21036;-68
2023/02/16 12:05:20;;;;;;;13.10;4.92;;;;;;;4.75;55.73;101021.88;1711170;84;21064;-68
2023/02/16 12:08:17;;;;;;;29.72;6.45;;;;;;;4.75;55.92;101013.73;1710731;84;21502;-68
2023/02/16 12:10:59;;;;;;;12.40;4.33;;;;;;;4.78;55.93;101007.16;1711428;83;21072;-69
2023/02/16 12:13:59;;;;;;;20.52;7.60;;;;;;;4.81;55.46;100997.87;1711052;84;21068;-69
2023/02/16 12:16:42;;;;;;;;;;;;;;;4.78;55.48;100991.73;1717899;83;21474;-69
2023/02/16 12:19:29;;;;;;;17.98;5.12;;;;;;;4.77;55.78;100983.73;1715240;83;20216;-67
2023/02/16 12:22:17;;;;;;;17.80;6.53;;;;;;;4.80;55.99;100986.66;1715031;83;21050;-68
2023/02/16 12:24:58;;;;;;;24.20;6.67;;;;;;;4.84;55.85;100984.00;1706320;82;21118;-69
2023/02/16 12:27:51;;;;;;;16.37;5.65;;;;;;;4.81;55.58;100983.80;1715011;83;21001;-68
2023/02/16 12:31:10;;;;;;;19.35;5.83;;;;;;;4.81;55.55;100977.00;1715243;82;21106;-68
2023/02/16 12:34:16;;;;;;;17.95;5.42;;;;;;;4.80;55.59;100970.36;1632621;88;21030;-69
2023/02/16 12:37:00;;;;;;;15.80;6.15;;;;;;;4.82;55.69;100972.43;1596126;90;21111;-69
2023/02/16 12:39:55;;;;;;;24.45;5.97;;;;;;;4.82;55.86;100963.78;1700700;83;21070;-67
2023/02/16 12:43:21;;;;;;;22.48;6.85;;;;;;;4.82;55.72;100966.50;1715051;83;21257;-67
2023/02/16 12:45:53;;;;;;;14.18;6.15;;;;;;;4.81;55.82;100970.72;1632482;86;21098;-67
2023/02/16 12:48:40;;;;;;;14.85;6.30;;;;;;;4.78;56.07;100961.87;1633496;88;21054;-66
2023/02/16 12:51:14;;;;;;;18.37;6.33;;;;;;;4.74;56.20;100963.16;1684521;83;21037;-68